createdAt,value
2023-01-09T00:01:21.934Z,6.10
2023-01-09T00:03:49.256Z,6.00
2023-01-09T00:06:16.572Z,6.00
2023-01-09T00:08:43.898Z,6.00
2023-01-09T00:11:11.144Z,6.00
2023-01-09T00:13:38.886Z,6.00
2023-01-09T00:16:07.798Z,6.00
2023-01-09T00:18:35.951Z,6.00
2023-01-09T00:21:05.032Z,6.00
2023-01-09T00:23:32.830Z,6.10
2023-01-09T00:26:15.613Z,6.20
2023-01-09T00:28:42.682Z,6.20
2023-01-09T00:31:10.620Z,6.10
2023-01-09T00:33:44.425Z,6.00
2023-01-09T00:36:12.747Z,6.00
2023-01-09T00:38:41.221Z,6.00
2023-01-09T00:41:13.396Z,6.00
2023-01-09T00:43:49.455Z,6.10
2023-01-09T00:46:19.414Z,6.10
2023-01-09T00:48:48.810Z,6.10
2023-01-09T00:51:18.358Z,6.10
2023-01-09T00:53:47.176Z,6.20
2023-01-09T00:56:17.867Z,6.30
2023-01-09T00:58:45.930Z,6.40
2023-01-09T01:01:13.485Z,6.40
2023-01-09T01:03:40.708Z,6.40
2023-01-09T01:07:04.055Z,6.40
2023-01-09T01:09:31.480Z,6.40
2023-01-09T01:11:58.845Z,6.50
2023-01-09T01:14:27.939Z,6.50
2023-01-09T01:16:55.051Z,6.50
2023-01-09T01:19:22.294Z,6.50
2023-01-09T01:21:49.309Z,6.50
2023-01-09T01:24:20.476Z,6.50
2023-01-09T01:26:48.162Z,6.60
2023-01-09T01:29:15.231Z,6.60
2023-01-09T01:31:42.214Z,6.70
2023-01-09T01:34:09.335Z,6.80
2023-01-09T01:36:36.879Z,6.90
2023-01-09T01:39:04.615Z,6.90
2023-01-09T01:41:31.610Z,7.00
2023-01-09T01:44:05.513Z,7.00
2023-01-09T01:46:34.615Z,7.00
2023-01-09T01:49:13.969Z,7.00
2023-01-09T01:51:45.028Z,7.10
2023-01-09T01:54:22.129Z,7.10
2023-01-09T01:56:57.209Z,7.20
2023-01-09T01:59:28.296Z,7.20
2023-01-09T02:01:59.484Z,7.20
2023-01-09T02:04:28.593Z,7.20
2023-01-09T02:06:57.379Z,7.20
2023-01-09T02:09:25.990Z,7.20
2023-01-09T02:11:57.081Z,7.20
2023-01-09T02:14:29.856Z,7.20
2023-01-09T02:17:21.676Z,7.20
2023-01-09T02:20:15.995Z,7.20
2023-01-09T02:23:04.590Z,7.20
2023-01-09T02:25:46.781Z,7.20
2023-01-09T02:28:32.189Z,7.20
2023-01-09T02:31:11.301Z,7.20
2023-01-09T02:34:13.246Z,7.10
2023-01-09T02:37:14.300Z,6.10
2023-01-09T02:40:20.476Z,4.20
2023-01-09T02:42:51.605Z,2.70
2023-01-09T02:45:20.496Z,1.60
2023-01-09T02:47:50.297Z,1.00
2023-01-09T02:50:34.574Z,0.50
2023-01-09T02:53:25.620Z,0.20
2023-01-09T02:56:08.694Z,0.40
2023-01-09T02:59:28.406Z,0.40
2023-01-09T03:02:30.037Z,0.20
2023-01-09T03:05:35.050Z,0.20
2023-01-09T03:08:19.520Z,0.00
2023-01-09T03:11:02.939Z,-0.20
2023-01-09T03:13:35.757Z,-0.30
2023-01-09T03:16:11.063Z,-0.40
2023-01-09T03:18:40.254Z,-0.40
2023-01-09T03:21:16.704Z,-0.60
2023-01-09T03:23:50.898Z,-0.60
2023-01-09T03:26:18.731Z,-0.50
2023-01-09T03:28:53.048Z,-0.10
2023-01-09T03:31:22.439Z,-0.30
2023-01-09T03:33:54.529Z,-0.60
2023-01-09T03:36:27.695Z,-0.80
2023-01-09T03:38:57.422Z,-0.80
2023-01-09T03:41:26.767Z,-1.00
2023-01-09T03:44:01.241Z,-0.60
2023-01-09T03:46:31.496Z,1.50
2023-01-09T03:49:03.183Z,3.40
2023-01-09T03:51:30.567Z,4.30
2023-01-09T03:54:02.244Z,4.80
2023-01-09T03:59:12.538Z,5.40
2023-01-09T04:01:43.393Z,5.60
2023-01-09T04:04:11.571Z,5.80
2023-01-09T04:06:39.947Z,5.90
2023-01-09T04:09:07.326Z,6.00
2023-01-09T04:11:35.647Z,6.10
2023-01-09T04:14:06.757Z,6.20
2023-01-09T04:16:36.229Z,6.30
2023-01-09T04:19:13.625Z,6.40
2023-01-09T04:21:42.145Z,6.50
2023-01-09T04:24:09.715Z,6.60
2023-01-09T04:26:48.759Z,6.60
2023-01-09T04:29:19.229Z,6.70
2023-01-09T04:31:51.547Z,6.70
2023-01-09T04:34:25.804Z,6.80
2023-01-09T04:36:57.942Z,6.80
2023-01-09T04:39:28.369Z,6.90
2023-01-09T04:41:55.652Z,6.90
2023-01-09T04:44:28.219Z,6.90
2023-01-09T04:47:00.387Z,6.90
2023-01-09T04:49:30.348Z,6.90
2023-01-09T04:52:06.474Z,6.90
2023-01-09T04:54:34.818Z,6.90
2023-01-09T04:57:03.422Z,6.90
2023-01-09T04:59:33.031Z,6.90
2023-01-09T05:02:03.180Z,6.90
2023-01-09T05:04:33.038Z,6.90
2023-01-09T05:07:01.566Z,6.90
2023-01-09T05:09:32.332Z,6.90
2023-01-09T05:12:03.634Z,6.90
2023-01-09T05:14:32.175Z,6.90
2023-01-09T05:17:01.033Z,6.90
2023-01-09T05:19:31.597Z,6.90
2023-01-09T05:22:00.507Z,6.90
2023-01-09T05:24:30.108Z,7.00
2023-01-09T05:26:57.385Z,6.90
2023-01-09T05:29:26.456Z,6.90
2023-01-09T05:31:56.387Z,6.90
2023-01-09T05:34:29.076Z,6.80
2023-01-09T05:36:59.357Z,6.80
2023-01-09T05:39:28.452Z,6.80
2023-01-09T05:41:56.681Z,6.80
2023-01-09T05:44:24.603Z,6.90
2023-01-09T05:46:54.808Z,6.80
2023-01-09T05:49:29.561Z,6.80
2023-01-09T05:52:00.747Z,6.80
2023-01-09T05:54:30.246Z,6.70
2023-01-09T05:57:07.127Z,6.80
2023-01-09T05:59:43.562Z,6.80
2023-01-09T06:02:16.980Z,6.80
2023-01-09T06:04:46.743Z,6.80
2023-01-09T06:10:01.827Z,6.90
2023-01-09T06:12:29.214Z,6.90
2023-01-09T06:14:59.076Z,6.90
2023-01-09T06:17:29.253Z,6.90
2023-01-09T06:19:57.790Z,6.90
2023-01-09T06:22:25.457Z,7.00
2023-01-09T06:24:56.573Z,7.00
2023-01-09T06:27:26.965Z,7.00
2023-01-09T06:29:57.015Z,7.00
2023-01-09T06:32:25.357Z,7.00
2023-01-09T06:34:52.622Z,7.00
2023-01-09T06:37:25.127Z,7.00
2023-01-09T06:39:56.646Z,7.00
2023-01-09T06:42:25.516Z,6.90
2023-01-09T06:44:54.918Z,6.90
2023-01-09T06:47:26.791Z,6.90
2023-01-09T06:49:57.728Z,6.90
2023-01-09T06:52:26.356Z,6.90
2023-01-09T06:54:54.639Z,6.90
2023-01-09T06:57:22.148Z,6.90
2023-01-09T06:59:52.097Z,6.90
2023-01-09T07:02:25.752Z,6.80
2023-01-09T07:04:56.837Z,6.80
2023-01-09T07:07:25.475Z,6.80
2023-01-09T07:09:55.647Z,6.90
2023-01-09T07:12:26.086Z,7.00
2023-01-09T07:14:57.939Z,6.90
2023-01-09T07:17:26.777Z,6.90
2023-01-09T07:19:56.855Z,6.90
2023-01-09T07:22:26.037Z,6.90
2023-01-09T07:25:03.094Z,6.80
2023-01-09T07:27:40.716Z,6.80
2023-01-09T07:30:30.506Z,6.80
2023-01-09T07:32:59.192Z,6.90
2023-01-09T07:35:36.603Z,6.90
2023-01-09T07:38:12.832Z,7.00
2023-01-09T07:40:42.703Z,7.10
2023-01-09T07:43:15.527Z,7.00
2023-01-09T07:45:45.592Z,7.10
2023-01-09T07:48:13.440Z,7.10
2023-01-09T07:50:40.496Z,7.10
2023-01-09T07:53:13.185Z,7.10
2023-01-09T07:55:45.959Z,7.10
2023-01-09T07:58:13.098Z,7.10
2023-01-09T08:00:41.652Z,7.20
2023-01-09T08:03:11.728Z,7.20
2023-01-09T08:05:39.133Z,7.30
2023-01-09T08:08:08.167Z,7.40
2023-01-09T08:10:37.053Z,7.40
2023-01-09T08:13:08.116Z,7.50
2023-01-09T08:15:45.618Z,7.60
2023-01-09T08:18:15.217Z,7.70
2023-01-09T08:20:45.028Z,7.70
2023-01-09T08:23:15.693Z,7.70
2023-01-09T08:25:42.926Z,7.80
2023-01-09T08:28:12.333Z,7.80
2023-01-09T08:30:43.443Z,7.80
2023-01-09T08:33:12.251Z,7.80
2023-01-09T08:35:40.802Z,7.90
2023-01-09T08:38:08.792Z,7.80
2023-01-09T08:40:39.207Z,7.90
2023-01-09T08:43:26.167Z,7.90
2023-01-09T08:46:13.782Z,7.90
2023-01-09T08:48:46.931Z,7.90
2023-01-09T08:51:17.239Z,7.90
2023-01-09T08:53:45.918Z,7.80
2023-01-09T08:56:16.164Z,7.80
2023-01-09T08:58:46.698Z,7.70
2023-01-09T09:01:15.339Z,7.70
2023-01-09T09:03:42.974Z,7.80
2023-01-09T09:06:12.834Z,7.80
2023-01-09T09:08:43.231Z,7.90
2023-01-09T09:11:10.703Z,8.00
2023-01-09T09:13:40.402Z,8.10
2023-01-09T09:16:12.854Z,8.30
2023-01-09T09:18:41.568Z,8.40
2023-01-09T09:21:10.769Z,8.00
2023-01-09T09:23:39.749Z,6.60
2023-01-09T09:26:09.127Z,5.30
2023-01-09T09:28:37.774Z,4.40
2023-01-09T09:31:10.406Z,3.80
2023-01-09T09:33:40.382Z,3.30
2023-01-09T09:36:09.565Z,3.00
2023-01-09T09:38:39.407Z,3.00
2023-01-09T09:41:54.899Z,3.90
2023-01-09T09:45:06.597Z,5.00
2023-01-09T09:47:52.378Z,6.00
2023-01-09T09:51:04.899Z,6.50
2023-01-09T09:54:07.981Z,7.00
2023-01-09T09:56:44.542Z,7.40
2023-01-09T09:59:34.170Z,7.60
2023-01-09T10:02:25.733Z,7.90
2023-01-09T10:05:08.174Z,8.10
2023-01-09T10:07:50.824Z,8.30
2023-01-09T10:10:39.060Z,8.50
2023-01-09T10:13:31.857Z,8.60
2023-01-09T10:16:47.089Z,8.60
2023-01-09T10:19:51.138Z,8.70
2023-01-09T10:22:47.051Z,8.70
2023-01-09T10:25:55.747Z,7.50
2023-01-09T10:28:51.714Z,5.50
2023-01-09T10:32:15.513Z,3.80
2023-01-09T10:35:26.159Z,2.70
2023-01-09T10:38:00.568Z,1.80
2023-01-09T10:44:05.422Z,1.00
2023-01-09T10:46:50.325Z,0.80
2023-01-09T10:49:23.928Z,0.60
2023-01-09T10:52:23.307Z,0.40
2023-01-09T10:54:56.873Z,0.20
2023-01-09T10:57:44.525Z,0.20
2023-01-09T11:00:26.225Z,1.00
2023-01-09T11:02:55.516Z,2.00
2023-01-09T11:05:32.888Z,2.90
2023-01-09T11:08:33.717Z,3.60
2023-01-09T11:11:03.244Z,4.10
2023-01-09T11:13:38.002Z,4.50
2023-01-09T11:16:19.309Z,4.80
2023-01-09T11:19:01.087Z,5.20
2023-01-09T11:21:44.687Z,5.60
2023-01-09T11:24:24.281Z,6.00
2023-01-09T11:27:37.529Z,6.20
2023-01-09T11:30:13.132Z,6.40
2023-01-09T11:32:43.277Z,6.50
2023-01-09T11:35:22.337Z,6.80
2023-01-09T11:38:13.915Z,6.90
2023-01-09T11:41:04.223Z,7.10
2023-01-09T11:43:44.161Z,7.10
2023-01-09T11:47:06.658Z,7.10
2023-01-09T11:49:35.178Z,7.10
2023-01-09T11:52:29.595Z,7.20
2023-01-09T11:55:14.516Z,7.20
2023-01-09T11:57:44.599Z,7.20
2023-01-09T12:00:31.384Z,7.30
2023-01-09T12:03:46.865Z,7.30
2023-01-09T12:06:35.610Z,7.30
2023-01-09T12:09:44.955Z,7.20
2023-01-09T12:12:45.790Z,7.30
2023-01-09T12:15:42.659Z,7.20
2023-01-09T12:18:24.974Z,7.10
2023-01-09T12:21:29.632Z,7.10
2023-01-09T12:24:05.731Z,7.10
2023-01-09T12:27:12.576Z,7.20
2023-01-09T12:30:11.964Z,7.40
2023-01-09T12:33:31.974Z,7.40
2023-01-09T12:36:32.566Z,7.40
2023-01-09T12:39:34.760Z,7.50
2023-01-09T12:42:18.623Z,7.60
2023-01-09T12:45:00.216Z,7.60
2023-01-09T12:47:51.747Z,7.60
2023-01-09T12:50:52.186Z,7.70
2023-01-09T12:54:05.014Z,7.70
2023-01-09T12:56:47.722Z,7.70
2023-01-09T12:59:42.377Z,7.70
2023-01-09T13:02:10.349Z,7.80
2023-01-09T13:05:07.057Z,7.90
2023-01-09T13:07:55.958Z,7.90
2023-01-09T13:10:29.133Z,8.00
2023-01-09T13:13:07.708Z,8.00
2023-01-09T13:15:48.407Z,8.00
2023-01-09T13:18:43.620Z,8.10
2023-01-09T13:21:15.648Z,8.00
2023-01-09T13:24:05.818Z,8.00
2023-01-09T13:26:38.082Z,8.00
2023-01-09T13:29:25.853Z,7.90
2023-01-09T13:32:24.479Z,7.90
2023-01-09T13:34:57.681Z,7.90
2023-01-09T13:37:31.033Z,7.80
2023-01-09T13:40:01.243Z,7.90
2023-01-09T13:42:46.603Z,7.90
2023-01-09T13:45:29.462Z,7.80
2023-01-09T13:48:09.328Z,7.70
2023-01-09T13:50:37.633Z,7.80
2023-01-09T13:53:28.008Z,7.80
2023-01-09T13:55:58.649Z,7.80
2023-01-09T13:58:28.447Z,7.70
2023-01-09T14:01:04.714Z,7.70
2023-01-09T14:03:37.869Z,7.60
2023-01-09T14:06:12.723Z,7.50
2023-01-09T14:08:42.437Z,7.50
2023-01-09T14:11:17.295Z,7.50
2023-01-09T14:13:46.239Z,7.50
2023-01-09T14:16:23.913Z,7.40
2023-01-09T14:18:59.467Z,7.20
2023-01-09T14:21:27.042Z,7.20
2023-01-09T14:24:05.310Z,7.10
2023-01-09T14:26:49.445Z,7.00
2023-01-09T14:29:32.089Z,6.80
2023-01-09T14:32:21.150Z,6.70
2023-01-09T14:35:14.004Z,6.60
2023-01-09T14:37:42.830Z,6.50
2023-01-09T14:40:23.581Z,6.30
2023-01-09T14:42:54.487Z,6.30
2023-01-09T14:45:25.823Z,6.20
2023-01-09T14:47:57.964Z,6.20
2023-01-09T14:50:37.190Z,6.20
2023-01-09T14:53:15.770Z,6.20
2023-01-09T14:55:42.831Z,6.10
2023-01-09T14:58:26.175Z,6.10
2023-01-09T15:00:59.292Z,6.20
2023-01-09T15:03:39.064Z,6.10
2023-01-09T15:06:10.064Z,6.10
2023-01-09T15:08:37.382Z,6.10
2023-01-09T15:11:04.440Z,6.10
2023-01-09T15:13:37.824Z,6.10
2023-01-09T15:16:06.580Z,6.00
2023-01-09T15:18:42.966Z,6.10
2023-01-09T15:21:22.056Z,6.00
2023-01-09T15:23:49.338Z,5.90
2023-01-09T15:26:29.414Z,5.90
2023-01-09T15:29:23.449Z,5.70
2023-01-09T15:32:17.849Z,4.20
2023-01-09T15:34:45.965Z,3.00
2023-01-09T15:37:33.996Z,2.10
2023-01-09T15:40:04.548Z,1.60
2023-01-09T15:42:57.807Z,1.20
2023-01-09T15:45:39.665Z,1.10
2023-01-09T15:48:18.768Z,1.40
2023-01-09T15:50:48.698Z,2.50
2023-01-09T15:53:18.971Z,3.20
2023-01-09T15:56:01.842Z,3.80
2023-01-09T15:58:41.215Z,4.10
2023-01-09T16:01:31.388Z,4.40
2023-01-09T16:04:09.361Z,4.70
2023-01-09T16:06:45.341Z,4.80
2023-01-09T16:09:30.863Z,4.90
2023-01-09T16:12:01.229Z,5.00
2023-01-09T16:14:40.035Z,5.10
2023-01-09T16:17:14.361Z,5.20
2023-01-09T16:19:55.356Z,5.20
2023-01-09T16:22:30.069Z,5.20
2023-01-09T16:25:00.189Z,5.20
2023-01-09T16:27:34.004Z,5.20
2023-01-09T16:30:08.736Z,5.20
2023-01-09T16:32:46.497Z,5.30
2023-01-09T16:35:20.729Z,5.30
2023-01-09T16:37:49.096Z,5.30
2023-01-09T16:40:21.554Z,5.40
2023-01-09T16:43:07.353Z,5.50
2023-01-09T16:45:42.110Z,5.50
2023-01-09T16:48:20.116Z,5.50
2023-01-09T16:50:48.071Z,5.60
2023-01-09T16:53:24.301Z,5.70
2023-01-09T16:55:54.211Z,5.80
2023-01-09T16:58:39.244Z,5.80
2023-01-09T17:01:07.338Z,6.00
2023-01-09T17:03:34.390Z,6.20
2023-01-09T17:06:03.558Z,6.30
2023-01-09T17:08:34.965Z,6.30
2023-01-09T17:11:02.622Z,6.20
2023-01-09T17:13:30.107Z,6.20
2023-01-09T17:15:58.475Z,6.30
2023-01-09T17:18:27.328Z,6.30
2023-01-09T17:20:59.538Z,6.30
2023-01-09T17:23:26.803Z,6.20
2023-01-09T17:26:16.379Z,6.20
2023-01-09T17:28:48.104Z,6.20
2023-01-09T17:31:15.205Z,6.20
2023-01-09T17:33:42.968Z,6.30
2023-01-09T17:36:29.119Z,6.20
2023-01-09T17:38:56.212Z,6.30
2023-01-09T17:41:25.189Z,6.30
2023-01-09T17:43:53.018Z,6.30
2023-01-09T17:46:33.610Z,6.30
2023-01-09T17:49:01.971Z,6.30
2023-01-09T17:51:29.760Z,6.30
2023-01-09T17:53:57.520Z,6.30
2023-01-09T17:56:32.986Z,6.30
2023-01-09T17:59:00.446Z,6.30
2023-01-09T18:01:27.717Z,6.30
2023-01-09T18:03:54.774Z,6.40
2023-01-09T18:06:22.581Z,6.40
2023-01-09T18:08:50.372Z,6.40
2023-01-09T18:11:19.579Z,6.40
2023-01-09T18:13:48.277Z,6.40
2023-01-09T18:16:24.379Z,6.40
2023-01-09T18:18:53.315Z,6.40
2023-01-09T18:21:23.146Z,6.30
2023-01-09T18:23:50.504Z,6.30
2023-01-09T18:26:21.624Z,6.30
2023-01-09T18:28:55.747Z,6.30
2023-01-09T18:31:25.263Z,6.40
2023-01-09T18:33:54.754Z,6.30
2023-01-09T18:36:24.820Z,6.30
2023-01-09T18:38:53.745Z,6.30
2023-01-09T18:41:23.472Z,6.30
2023-01-09T18:43:54.148Z,6.40
2023-01-09T18:46:24.777Z,6.40
2023-01-09T18:48:57.163Z,6.40
2023-01-09T18:51:26.767Z,6.40
2023-01-09T18:53:55.160Z,6.30
2023-01-09T18:56:23.364Z,6.30
2023-01-09T18:58:57.777Z,6.30
2023-01-09T19:01:28.389Z,6.40
2023-01-09T19:03:57.068Z,6.40
2023-01-09T19:09:08.734Z,6.40
2023-01-09T19:11:35.999Z,6.40
2023-01-09T19:14:03.476Z,6.40
2023-01-09T19:16:30.671Z,6.40
2023-01-09T19:18:59.159Z,6.40
2023-01-09T19:21:27.042Z,6.40
2023-01-09T19:23:55.026Z,6.40
2023-01-09T19:26:27.212Z,6.50
2023-01-09T19:28:57.597Z,6.40
2023-01-09T19:31:28.734Z,6.40
2023-01-09T19:33:57.096Z,6.40
2023-01-09T19:36:24.438Z,6.40
2023-01-09T19:38:57.022Z,6.30
2023-01-09T19:41:24.708Z,5.00
2023-01-09T19:43:52.620Z,3.20
2023-01-09T19:46:25.235Z,1.70
2023-01-09T19:48:53.207Z,0.60
2023-01-09T19:51:22.251Z,-0.10
2023-01-09T19:53:54.582Z,-0.80
2023-01-09T19:56:24.294Z,-1.30
2023-01-09T19:58:57.390Z,-1.50
2023-01-09T20:01:33.062Z,-1.80
2023-01-09T20:04:02.984Z,-2.00
2023-01-09T20:06:31.131Z,-2.20
2023-01-09T20:09:00.696Z,-2.30
2023-01-09T20:11:30.045Z,-2.50
2023-01-09T20:13:57.991Z,-2.70
2023-01-09T20:16:31.025Z,-2.70
2023-01-09T20:19:00.594Z,-2.80
2023-01-09T20:21:29.251Z,-2.80
2023-01-09T20:23:59.345Z,-2.90
2023-01-09T20:26:27.859Z,-2.90
2023-01-09T20:28:55.972Z,-2.90
2023-01-09T20:31:25.567Z,-3.00
2023-01-09T20:33:52.875Z,-2.90
2023-01-09T20:36:23.268Z,-2.00
2023-01-09T20:38:50.558Z,-1.70
2023-01-09T20:41:26.848Z,-2.10
2023-01-09T20:43:56.824Z,-2.50
2023-01-09T20:46:26.669Z,-2.80
2023-01-09T20:49:03.568Z,-1.80
2023-01-09T20:51:31.332Z,-0.10
2023-01-09T20:53:58.729Z,0.90
2023-01-09T20:56:27.485Z,1.40
2023-01-09T20:58:55.272Z,1.70
2023-01-09T21:01:25.647Z,2.10
2023-01-09T21:03:55.018Z,2.30
2023-01-09T21:06:24.108Z,2.50
2023-01-09T21:08:53.374Z,2.70
2023-01-09T21:11:24.266Z,2.80
2023-01-09T21:13:54.898Z,3.00
2023-01-09T21:16:24.637Z,3.10
2023-01-09T21:18:53.595Z,3.20
2023-01-09T21:21:24.509Z,3.40
2023-01-09T21:23:57.688Z,3.50
2023-01-09T21:26:28.000Z,3.50
2023-01-09T21:28:56.831Z,3.60
2023-01-09T21:31:29.928Z,3.70
2023-01-09T21:33:57.732Z,3.80
2023-01-09T21:36:24.946Z,3.80
2023-01-09T21:38:57.091Z,3.90
2023-01-09T21:41:45.833Z,4.00
2023-01-09T21:44:32.499Z,4.20
2023-01-09T21:47:01.771Z,4.20
2023-01-09T21:49:31.665Z,4.20
2023-01-09T21:51:58.936Z,4.10
2023-01-09T21:54:26.429Z,4.30
2023-01-09T21:56:54.203Z,4.30
2023-01-09T21:59:21.523Z,4.30
2023-01-09T22:01:49.855Z,4.40
2023-01-09T22:04:19.224Z,4.30
2023-01-09T22:06:46.547Z,4.30
2023-01-09T22:09:14.074Z,4.30
2023-01-09T22:11:41.932Z,4.40
2023-01-09T22:14:16.232Z,4.30
2023-01-09T22:16:44.982Z,4.20
2023-01-09T22:19:14.028Z,4.20
2023-01-09T22:21:41.363Z,4.20
2023-01-09T22:24:09.496Z,4.20
2023-01-09T22:26:36.527Z,4.20
2023-01-09T22:29:04.882Z,4.20
2023-01-09T22:31:33.536Z,4.40
2023-01-09T22:34:02.952Z,4.40
2023-01-09T22:36:31.228Z,4.40
2023-01-09T22:39:00.248Z,4.30
2023-01-09T22:41:29.842Z,3.40
2023-01-09T22:43:57.225Z,2.00
2023-01-09T22:46:24.625Z,0.70
2023-01-09T22:48:52.081Z,-0.10
2023-01-09T22:51:21.720Z,-0.70
2023-01-09T22:53:49.402Z,-1.00
2023-01-09T22:56:22.433Z,-1.20
2023-01-09T22:58:54.165Z,-1.30
2023-01-09T23:01:22.609Z,-1.40
2023-01-09T23:03:49.991Z,-1.30
2023-01-09T23:06:19.314Z,-1.30
2023-01-09T23:08:46.928Z,-1.30
2023-01-09T23:11:38.753Z,-1.10
2023-01-09T23:14:05.851Z,-1.00
2023-01-09T23:16:33.268Z,-0.50
2023-01-09T23:19:00.362Z,0.10
2023-01-09T23:21:27.431Z,0.80
2023-01-09T23:23:54.452Z,1.30
2023-01-09T23:26:21.726Z,1.70
2023-01-09T23:28:49.068Z,2.20
2023-01-09T23:31:16.547Z,2.60
2023-01-09T23:33:43.560Z,2.70
2023-01-09T23:36:10.586Z,3.00
2023-01-09T23:38:39.335Z,3.00
2023-01-09T23:41:08.508Z,3.20
2023-01-09T23:43:35.571Z,3.40
2023-01-09T23:46:02.867Z,3.40
2023-01-09T23:48:30.180Z,3.40
2023-01-09T23:50:57.513Z,3.50
2023-01-09T23:53:24.640Z,3.50
2023-01-09T23:55:57.056Z,3.50
2023-01-09T23:58:24.468Z,3.70
